sensor_id;sensor_type;location;lat;lon;timestamp;temperature;humidity
28460;DHT22;32528;45.712;9.192;2022-10-15T00:01:50;14.70;99.90
28460;DHT22;32528;45.712;9.192;2022-10-15T00:03:50;14.70;99.90
28460;DHT22;32528;45.712;9.192;2022-10-15T00:05:51;14.70;99.90
28460;DHT22;32528;45.712;9.192;2022-10-15T00:07:52;14.70;99.90
28460;DHT22;32528;45.712;9.192;2022-10-15T00:09:53;14.60;99.90
28460;DHT22;32528;45.712;9.192;2022-10-15T00:11:53;14.60;99.90
28460;DHT22;32528;45.712;9.192;2022-10-15T00:13:55;14.60;99.90
28460;DHT22;32528;45.712;9.192;2022-10-15T00:15:56;14.50;99.90
28460;DHT22;32528;45.712;9.192;2022-10-15T00:17:57;14.50;99.90
28460;DHT22;32528;45.712;9.192;2022-10-15T00:19:57;14.50;99.90
28460;DHT22;32528;45.712;9.192;2022-10-15T00:21:58;14.50;99.90
28460;DHT22;32528;45.712;9.192;2022-10-15T00:23:58;14.40;99.90
28460;DHT22;32528;45.712;9.192;2022-10-15T00:26:00;14.40;99.90
28460;DHT22;32528;45.712;9.192;2022-10-15T00:28:01;14.40;99.90
28460;DHT22;32528;45.712;9.192;2022-10-15T00:30:02;14.40;99.90
28460;DHT22;32528;45.712;9.192;2022-10-15T00:32:03;14.40;99.90
28460;DHT22;32528;45.712;9.192;2022-10-15T00:34:04;14.40;99.90
28460;DHT22;32528;45.712;9.192;2022-10-15T00:36:06;14.40;99.90
28460;DHT22;32528;45.712;9.192;2022-10-15T00:38:07;14.40;99.90
28460;DHT22;32528;45.712;9.192;2022-10-15T00:40:08;14.30;99.90
28460;DHT22;32528;45.712;9.192;2022-10-15T00:42:09;14.30;99.90
28460;DHT22;32528;45.712;9.192;2022-10-15T00:46:34;14.20;99.90
28460;DHT22;32528;45.712;9.192;2022-10-15T00:48:37;14.20;99.90
28460;DHT22;32528;45.712;9.192;2022-10-15T00:50:38;14.30;99.90
28460;DHT22;32528;45.712;9.192;2022-10-15T00:52:59;14.20;99.90
28460;DHT22;32528;45.712;9.192;2022-10-15T00:55:03;14.20;99.90
28460;DHT22;32528;45.712;9.192;2022-10-15T00:57:05;14.20;99.90
28460;DHT22;32528;45.712;9.192;2022-10-15T00:59:06;14.20;99.90
28460;DHT22;32528;45.712;9.192;2022-10-15T01:01:06;14.20;99.90
28460;DHT22;32528;45.712;9.192;2022-10-15T01:03:08;14.20;99.90
28460;DHT22;32528;45.712;9.192;2022-10-15T01:05:08;14.20;99.90
28460;DHT22;32528;45.712;9.192;2022-10-15T01:07:11;14.20;99.90
28460;DHT22;32528;45.712;9.192;2022-10-15T01:09:11;14.10;99.90
28460;DHT22;32528;45.712;9.192;2022-10-15T01:11:16;14.10;99.90
28460;DHT22;32528;45.712;9.192;2022-10-15T01:13:25;14.10;99.90
28460;DHT22;32528;45.712;9.192;2022-10-15T01:15:52;14.10;99.90
28460;DHT22;32528;45.712;9.192;2022-10-15T01:17:58;14.10;99.90
28460;DHT22;32528;45.712;9.192;2022-10-15T01:22:45;14.10;99.90
28460;DHT22;32528;45.712;9.192;2022-10-15T01:25:00;14.10;99.90
28460;DHT22;32528;45.712;9.192;2022-10-15T01:29:18;14.10;99.90
28460;DHT22;32528;45.712;9.192;2022-10-15T01:31:37;14.10;99.90
28460;DHT22;32528;45.712;9.192;2022-10-15T01:33:56;14.10;99.90
28460;DHT22;32528;45.712;9.192;2022-10-15T01:38:12;14.10;99.90
28460;DHT22;32528;45.712;9.192;2022-10-15T01:44:38;14.10;99.90
28460;DHT22;32528;45.712;9.192;2022-10-15T01:48:55;14.00;99.90
28460;DHT22;32528;45.712;9.192;2022-10-15T01:50:57;14.00;99.90
28460;DHT22;32528;45.712;9.192;2022-10-15T01:52:59;13.90;99.90
28460;DHT22;32528;45.712;9.192;2022-10-15T01:55:02;13.90;99.90
28460;DHT22;32528;45.712;9.192;2022-10-15T01:57:05;13.80;99.90
28460;DHT22;32528;45.712;9.192;2022-10-15T01:59:06;13.80;99.90
28460;DHT22;32528;45.712;9.192;2022-10-15T02:01:09;13.80;99.90
28460;DHT22;32528;45.712;9.192;2022-10-15T02:03:10;13.80;99.90
28460;DHT22;32528;45.712;9.192;2022-10-15T02:05:14;13.70;99.90
28460;DHT22;32528;45.712;9.192;2022-10-15T02:07:26;13.70;99.90
28460;DHT22;32528;45.712;9.192;2022-10-15T02:14:08;13.60;99.90
28460;DHT22;32528;45.712;9.192;2022-10-15T02:18:18;13.60;99.90
28460;DHT22;32528;45.712;9.192;2022-10-15T02:20:23;13.60;99.90
28460;DHT22;32528;45.712;9.192;2022-10-15T02:22:25;13.60;99.90
28460;DHT22;32528;45.712;9.192;2022-10-15T02:24:31;13.60;99.90
28460;DHT22;32528;45.712;9.192;2022-10-15T02:26:33;13.70;99.90
28460;DHT22;32528;45.712;9.192;2022-10-15T02:28:35;13.60;99.90
28460;DHT22;32528;45.712;9.192;2022-10-15T02:30:37;13.60;99.90
28460;DHT22;32528;45.712;9.192;2022-10-15T02:32:38;13.60;99.90
28460;DHT22;32528;45.712;9.192;2022-10-15T02:34:40;13.60;99.90
28460;DHT22;32528;45.712;9.192;2022-10-15T02:36:41;13.60;99.90
28460;DHT22;32528;45.712;9.192;2022-10-15T02:38:42;13.70;99.90
28460;DHT22;32528;45.712;9.192;2022-10-15T02:40:44;13.70;99.90
28460;DHT22;32528;45.712;9.192;2022-10-15T02:42:45;13.60;99.90
28460;DHT22;32528;45.712;9.192;2022-10-15T02:44:46;13.70;99.90
28460;DHT22;32528;45.712;9.192;2022-10-15T02:46:46;13.70;99.90
28460;DHT22;32528;45.712;9.192;2022-10-15T02:48:49;13.70;99.90
28460;DHT22;32528;45.712;9.192;2022-10-15T02:50:51;13.60;99.90
28460;DHT22;32528;45.712;9.192;2022-10-15T02:52:52;13.60;99.90
28460;DHT22;32528;45.712;9.192;2022-10-15T02:54:53;13.60;99.90
28460;DHT22;32528;45.712;9.192;2022-10-15T02:56:55;13.60;99.90
28460;DHT22;32528;45.712;9.192;2022-10-15T02:58:56;13.60;99.90
28460;DHT22;32528;45.712;9.192;2022-10-15T03:00:56;13.60;99.90
28460;DHT22;32528;45.712;9.192;2022-10-15T03:02:57;13.70;99.90
28460;DHT22;32528;45.712;9.192;2022-10-15T03:04:58;13.70;99.90
28460;DHT22;32528;45.712;9.192;2022-10-15T03:06:59;13.70;99.90
28460;DHT22;32528;45.712;9.192;2022-10-15T03:08:59;13.70;99.90
28460;DHT22;32528;45.712;9.192;2022-10-15T03:11:00;13.70;99.90
28460;DHT22;32528;45.712;9.192;2022-10-15T03:13:04;13.70;99.90
28460;DHT22;32528;45.712;9.192;2022-10-15T03:15:09;13.70;99.90
28460;DHT22;32528;45.712;9.192;2022-10-15T03:17:10;13.80;99.90
28460;DHT22;32528;45.712;9.192;2022-10-15T03:19:10;13.90;99.90
28460;DHT22;32528;45.712;9.192;2022-10-15T03:21:12;14.00;99.90
28460;DHT22;32528;45.712;9.192;2022-10-15T03:23:13;14.00;99.90
28460;DHT22;32528;45.712;9.192;2022-10-15T03:25:14;14.00;99.90
28460;DHT22;32528;45.712;9.192;2022-10-15T03:27:15;14.00;99.90
28460;DHT22;32528;45.712;9.192;2022-10-15T03:29:15;14.00;99.90
28460;DHT22;32528;45.712;9.192;2022-10-15T03:31:26;14.00;99.90
28460;DHT22;32528;45.712;9.192;2022-10-15T03:33:29;13.90;99.90
28460;DHT22;32528;45.712;9.192;2022-10-15T03:35:31;13.90;99.90
28460;DHT22;32528;45.712;9.192;2022-10-15T03:37:32;13.90;99.90
28460;DHT22;32528;45.712;9.192;2022-10-15T03:39:33;13.90;99.90
28460;DHT22;32528;45.712;9.192;2022-10-15T03:41:37;13.90;99.90
28460;DHT22;32528;45.712;9.192;2022-10-15T03:43:39;13.90;99.90
28460;DHT22;32528;45.712;9.192;2022-10-15T03:45:40;14.00;99.90
28460;DHT22;32528;45.712;9.192;2022-10-15T03:47:49;14.00;99.90
28460;DHT22;32528;45.712;9.192;2022-10-15T03:49:50;14.00;99.90
28460;DHT22;32528;45.712;9.192;2022-10-15T03:51:52;14.00;99.90
28460;DHT22;32528;45.712;9.192;2022-10-15T03:53:54;13.90;99.90
28460;DHT22;32528;45.712;9.192;2022-10-15T03:55:54;14.00;99.90
28460;DHT22;32528;45.712;9.192;2022-10-15T03:57:55;14.00;99.90
28460;DHT22;32528;45.712;9.192;2022-10-15T03:59:56;13.90;99.90
28460;DHT22;32528;45.712;9.192;2022-10-15T04:01:58;13.90;99.90
28460;DHT22;32528;45.712;9.192;2022-10-15T04:04:00;13.80;99.90
28460;DHT22;32528;45.712;9.192;2022-10-15T04:06:00;13.80;99.90
28460;DHT22;32528;45.712;9.192;2022-10-15T04:08:02;13.70;99.90
28460;DHT22;32528;45.712;9.192;2022-10-15T04:10:06;13.70;99.90
28460;DHT22;32528;45.712;9.192;2022-10-15T04:12:11;13.60;99.90
28460;DHT22;32528;45.712;9.192;2022-10-15T04:14:12;13.60;99.90
28460;DHT22;32528;45.712;9.192;2022-10-15T04:16:13;13.60;99.90
28460;DHT22;32528;45.712;9.192;2022-10-15T04:18:14;13.60;99.90
28460;DHT22;32528;45.712;9.192;2022-10-15T04:20:15;13.60;99.90
28460;DHT22;32528;45.712;9.192;2022-10-15T04:22:18;13.60;99.90
28460;DHT22;32528;45.712;9.192;2022-10-15T04:24:23;13.70;99.90
28460;DHT22;32528;45.712;9.192;2022-10-15T04:26:24;13.60;99.90
28460;DHT22;32528;45.712;9.192;2022-10-15T04:28:25;13.60;99.90
28460;DHT22;32528;45.712;9.192;2022-10-15T04:30:26;13.60;99.90
28460;DHT22;32528;45.712;9.192;2022-10-15T04:32:32;13.60;99.90
28460;DHT22;32528;45.712;9.192;2022-10-15T04:34:33;13.60;99.90
28460;DHT22;32528;45.712;9.192;2022-10-15T04:36:34;13.60;99.90
28460;DHT22;32528;45.712;9.192;2022-10-15T04:38:46;13.60;99.90
28460;DHT22;32528;45.712;9.192;2022-10-15T04:40:47;13.60;99.90
28460;DHT22;32528;45.712;9.192;2022-10-15T04:42:47;13.60;99.90
28460;DHT22;32528;45.712;9.192;2022-10-15T04:44:48;13.60;99.90
28460;DHT22;32528;45.712;9.192;2022-10-15T04:46:49;13.60;99.90
28460;DHT22;32528;45.712;9.192;2022-10-15T04:49:07;13.60;99.90
28460;DHT22;32528;45.712;9.192;2022-10-15T04:51:12;13.60;99.90
28460;DHT22;32528;45.712;9.192;2022-10-15T04:53:32;13.70;99.90
28460;DHT22;32528;45.712;9.192;2022-10-15T04:55:33;13.70;99.90
28460;DHT22;32528;45.712;9.192;2022-10-15T04:57:35;13.70;99.90
28460;DHT22;32528;45.712;9.192;2022-10-15T04:59:36;13.70;99.90
28460;DHT22;32528;45.712;9.192;2022-10-15T05:01:56;13.70;99.90
28460;DHT22;32528;45.712;9.192;2022-10-15T05:03:58;13.70;99.90
28460;DHT22;32528;45.712;9.192;2022-10-15T05:06:00;13.60;99.90
28460;DHT22;32528;45.712;9.192;2022-10-15T05:08:01;13.60;99.90
28460;DHT22;32528;45.712;9.192;2022-10-15T05:10:05;13.50;99.90
28460;DHT22;32528;45.712;9.192;2022-10-15T05:12:06;13.50;99.90
28460;DHT22;32528;45.712;9.192;2022-10-15T05:14:08;13.50;99.90
28460;DHT22;32528;45.712;9.192;2022-10-15T05:16:11;13.60;99.90
28460;DHT22;32528;45.712;9.192;2022-10-15T05:18:12;13.70;99.90
28460;DHT22;32528;45.712;9.192;2022-10-15T05:20:20;13.70;99.90
28460;DHT22;32528;45.712;9.192;2022-10-15T05:22:21;13.70;99.90
28460;DHT22;32528;45.712;9.192;2022-10-15T05:24:26;13.70;99.90
28460;DHT22;32528;45.712;9.192;2022-10-15T05:26:42;13.70;99.90
28460;DHT22;32528;45.712;9.192;2022-10-15T05:28:43;13.60;99.90
28460;DHT22;32528;45.712;9.192;2022-10-15T05:30:48;13.60;99.90
28460;DHT22;32528;45.712;9.192;2022-10-15T05:32:50;13.50;99.90
28460;DHT22;32528;45.712;9.192;2022-10-15T05:34:52;13.50;99.90
28460;DHT22;32528;45.712;9.192;2022-10-15T05:36:53;13.40;99.90
28460;DHT22;32528;45.712;9.192;2022-10-15T05:39:00;13.40;99.90
28460;DHT22;32528;45.712;9.192;2022-10-15T05:41:01;13.40;99.90
28460;DHT22;32528;45.712;9.192;2022-10-15T05:43:02;13.40;99.90
28460;DHT22;32528;45.712;9.192;2022-10-15T05:45:03;13.40;99.90
28460;DHT22;32528;45.712;9.192;2022-10-15T05:47:04;13.40;99.90
28460;DHT22;32528;45.712;9.192;2022-10-15T05:49:07;13.40;99.90
28460;DHT22;32528;45.712;9.192;2022-10-15T05:51:20;13.40;99.90
28460;DHT22;32528;45.712;9.192;2022-10-15T05:53:21;13.40;99.90
28460;DHT22;32528;45.712;9.192;2022-10-15T05:55:25;13.50;99.90
28460;DHT22;32528;45.712;9.192;2022-10-15T05:57:26;13.50;99.90
28460;DHT22;32528;45.712;9.192;2022-10-15T05:59:27;13.50;99.90
28460;DHT22;32528;45.712;9.192;2022-10-15T06:01:27;13.50;99.90
28460;DHT22;32528;45.712;9.192;2022-10-15T06:03:28;13.50;99.90
28460;DHT22;32528;45.712;9.192;2022-10-15T06:05:30;13.50;99.90
28460;DHT22;32528;45.712;9.192;2022-10-15T06:07:31;13.50;99.90
28460;DHT22;32528;45.712;9.192;2022-10-15T06:09:35;13.60;99.90
28460;DHT22;32528;45.712;9.192;2022-10-15T06:11:36;13.60;99.90
28460;DHT22;32528;45.712;9.192;2022-10-15T06:13:37;13.60;99.90
28460;DHT22;32528;45.712;9.192;2022-10-15T06:15:42;13.70;99.90
28460;DHT22;32528;45.712;9.192;2022-10-15T06:17:43;13.70;99.90
28460;DHT22;32528;45.712;9.192;2022-10-15T06:19:44;13.70;99.90
28460;DHT22;32528;45.712;9.192;2022-10-15T06:21:45;13.80;99.90
28460;DHT22;32528;45.712;9.192;2022-10-15T06:23:45;13.80;99.90
28460;DHT22;32528;45.712;9.192;2022-10-15T06:25:46;13.80;99.90
28460;DHT22;32528;45.712;9.192;2022-10-15T06:27:47;13.80;99.90
28460;DHT22;32528;45.712;9.192;2022-10-15T06:29:47;13.80;99.90
28460;DHT22;32528;45.712;9.192;2022-10-15T06:31:48;13.80;99.90
28460;DHT22;32528;45.712;9.192;2022-10-15T06:33:48;13.80;99.90
28460;DHT22;32528;45.712;9.192;2022-10-15T06:35:49;13.80;99.90
28460;DHT22;32528;45.712;9.192;2022-10-15T06:37:49;13.80;99.90
28460;DHT22;32528;45.712;9.192;2022-10-15T06:39:50;13.80;99.90
28460;DHT22;32528;45.712;9.192;2022-10-15T06:41:51;13.80;99.90
28460;DHT22;32528;45.712;9.192;2022-10-15T06:43:51;13.80;99.90
28460;DHT22;32528;45.712;9.192;2022-10-15T06:45:53;13.90;99.90
28460;DHT22;32528;45.712;9.192;2022-10-15T06:47:54;14.00;99.90
28460;DHT22;32528;45.712;9.192;2022-10-15T06:49:54;14.10;99.90
28460;DHT22;32528;45.712;9.192;2022-10-15T06:51:55;14.10;99.90
28460;DHT22;32528;45.712;9.192;2022-10-15T06:53:56;14.20;99.90
28460;DHT22;32528;45.712;9.192;2022-10-15T06:55:57;14.30;99.90
28460;DHT22;32528;45.712;9.192;2022-10-15T06:57:58;14.30;99.90
28460;DHT22;32528;45.712;9.192;2022-10-15T06:59:59;14.40;99.90
28460;DHT22;32528;45.712;9.192;2022-10-15T07:02:00;14.40;99.90
28460;DHT22;32528;45.712;9.192;2022-10-15T07:04:01;14.50;99.90
28460;DHT22;32528;45.712;9.192;2022-10-15T07:06:02;14.50;99.90
28460;DHT22;32528;45.712;9.192;2022-10-15T07:08:03;14.60;99.90
28460;DHT22;32528;45.712;9.192;2022-10-15T07:10:04;14.70;99.90
28460;DHT22;32528;45.712;9.192;2022-10-15T07:12:06;14.90;99.90
28460;DHT22;32528;45.712;9.192;2022-10-15T07:14:07;15.00;99.90
28460;DHT22;32528;45.712;9.192;2022-10-15T07:16:08;15.20;99.90
28460;DHT22;32528;45.712;9.192;2022-10-15T07:18:09;15.40;99.90
28460;DHT22;32528;45.712;9.192;2022-10-15T07:20:10;15.60;99.90
28460;DHT22;32528;45.712;9.192;2022-10-15T07:22:11;15.60;99.90
28460;DHT22;32528;45.712;9.192;2022-10-15T07:24:11;15.70;99.90
28460;DHT22;32528;45.712;9.192;2022-10-15T07:26:12;15.80;99.90
28460;DHT22;32528;45.712;9.192;2022-10-15T07:28:13;16.00;99.90
28460;DHT22;32528;45.712;9.192;2022-10-15T07:30:13;16.10;99.90
28460;DHT22;32528;45.712;9.192;2022-10-15T07:32:14;16.20;99.90
28460;DHT22;32528;45.712;9.192;2022-10-15T07:34:15;16.30;99.90
28460;DHT22;32528;45.712;9.192;2022-10-15T07:36:15;16.40;99.90
28460;DHT22;32528;45.712;9.192;2022-10-15T07:38:16;16.50;99.90
28460;DHT22;32528;45.712;9.192;2022-10-15T07:40:17;16.50;99.90
28460;DHT22;32528;45.712;9.192;2022-10-15T07:42:18;16.60;99.90
28460;DHT22;32528;45.712;9.192;2022-10-15T07:44:19;16.90;99.90
28460;DHT22;32528;45.712;9.192;2022-10-15T07:46:20;17.00;99.90
28460;DHT22;32528;45.712;9.192;2022-10-15T07:48:27;17.20;99.90
28460;DHT22;32528;45.712;9.192;2022-10-15T07:50:28;17.40;99.90
28460;DHT22;32528;45.712;9.192;2022-10-15T07:52:33;17.60;99.90
28460;DHT22;32528;45.712;9.192;2022-10-15T07:54:34;17.90;99.90
28460;DHT22;32528;45.712;9.192;2022-10-15T07:56:35;18.10;99.90
28460;DHT22;32528;45.712;9.192;2022-10-15T07:58:36;18.30;99.90
28460;DHT22;32528;45.712;9.192;2022-10-15T08:00:37;18.50;99.90
28460;DHT22;32528;45.712;9.192;2022-10-15T08:02:38;18.70;99.90
28460;DHT22;32528;45.712;9.192;2022-10-15T08:04:39;18.80;99.90
28460;DHT22;32528;45.712;9.192;2022-10-15T08:06:39;18.90;99.90
28460;DHT22;32528;45.712;9.192;2022-10-15T08:08:40;18.90;99.90
28460;DHT22;32528;45.712;9.192;2022-10-15T08:10:41;19.00;99.90
28460;DHT22;32528;45.712;9.192;2022-10-15T08:12:41;19.10;99.90
28460;DHT22;32528;45.712;9.192;2022-10-15T08:14:42;19.10;99.90
28460;DHT22;32528;45.712;9.192;2022-10-15T08:16:43;19.20;99.90
28460;DHT22;32528;45.712;9.192;2022-10-15T08:18:43;19.20;99.90
28460;DHT22;32528;45.712;9.192;2022-10-15T08:20:44;19.20;99.90
28460;DHT22;32528;45.712;9.192;2022-10-15T08:22:45;19.30;99.90
28460;DHT22;32528;45.712;9.192;2022-10-15T08:24:45;19.30;99.90
28460;DHT22;32528;45.712;9.192;2022-10-15T08:26:47;19.50;99.90
28460;DHT22;32528;45.712;9.192;2022-10-15T08:28:48;19.50;99.90
28460;DHT22;32528;45.712;9.192;2022-10-15T08:30:51;19.60;99.90
28460;DHT22;32528;45.712;9.192;2022-10-15T08:32:51;19.80;99.90
28460;DHT22;32528;45.712;9.192;2022-10-15T08:34:52;20.00;99.40
28460;DHT22;32528;45.712;9.192;2022-10-15T08:36:53;20.10;99.40
28460;DHT22;32528;45.712;9.192;2022-10-15T08:38:53;20.20;99.30
28460;DHT22;32528;45.712;9.192;2022-10-15T08:40:55;20.30;99.40
28460;DHT22;32528;45.712;9.192;2022-10-15T08:42:56;20.40;98.60
28460;DHT22;32528;45.712;9.192;2022-10-15T08:44:58;20.40;99.20
28460;DHT22;32528;45.712;9.192;2022-10-15T08:47:37;20.50;98.90
28460;DHT22;32528;45.712;9.192;2022-10-15T08:51:33;20.40;98.30
28460;DHT22;32528;45.712;9.192;2022-10-15T08:53:38;20.30;98.80
28460;DHT22;32528;45.712;9.192;2022-10-15T08:55:41;20.30;99.10
28460;DHT22;32528;45.712;9.192;2022-10-15T08:57:45;20.40;98.20
28460;DHT22;32528;45.712;9.192;2022-10-15T09:04:23;20.20;98.70
28460;DHT22;32528;45.712;9.192;2022-10-15T09:06:29;20.20;98.40
28460;DHT22;32528;45.712;9.192;2022-10-15T09:10:48;20.20;98.20
28460;DHT22;32528;45.712;9.192;2022-10-15T09:12:53;20.30;98.20
28460;DHT22;32528;45.712;9.192;2022-10-15T09:14:55;20.40;97.80
28460;DHT22;32528;45.712;9.192;2022-10-15T09:16:58;20.60;97.20
28460;DHT22;32528;45.712;9.192;2022-10-15T09:19:01;20.70;97.40
28460;DHT22;32528;45.712;9.192;2022-10-15T09:21:04;20.80;97.50
28460;DHT22;32528;45.712;9.192;2022-10-15T09:23:08;20.90;96.70
28460;DHT22;32528;45.712;9.192;2022-10-15T09:25:14;20.90;96.90
28460;DHT22;32528;45.712;9.192;2022-10-15T09:29:24;20.80;97.00
28460;DHT22;32528;45.712;9.192;2022-10-15T09:31:28;20.80;97.10
28460;DHT22;32528;45.712;9.192;2022-10-15T09:42:29;20.90;95.60
28460;DHT22;32528;45.712;9.192;2022-10-15T09:44:36;20.80;95.80
28460;DHT22;32528;45.712;9.192;2022-10-15T09:46:47;20.90;96.40
28460;DHT22;32528;45.712;9.192;2022-10-15T09:50:53;20.90;95.20
28460;DHT22;32528;45.712;9.192;2022-10-15T09:57:18;21.10;95.60
28460;DHT22;32528;45.712;9.192;2022-10-15T09:59:20;21.20;95.80
28460;DHT22;32528;45.712;9.192;2022-10-15T10:01:22;21.10;95.10
28460;DHT22;32528;45.712;9.192;2022-10-15T10:03:24;21.10;95.10
28460;DHT22;32528;45.712;9.192;2022-10-15T10:05:29;21.00;94.00
28460;DHT22;32528;45.712;9.192;2022-10-15T10:07:34;20.90;93.20
28460;DHT22;32528;45.712;9.192;2022-10-15T10:09:36;20.80;93.00
28460;DHT22;32528;45.712;9.192;2022-10-15T10:11:51;20.70;93.10
28460;DHT22;32528;45.712;9.192;2022-10-15T10:13:55;20.50;92.60
28460;DHT22;32528;45.712;9.192;2022-10-15T10:16:01;20.60;92.70
28460;DHT22;32528;45.712;9.192;2022-10-15T10:18:02;20.60;92.10
28460;DHT22;32528;45.712;9.192;2022-10-15T10:22:16;20.60;93.00
28460;DHT22;32528;45.712;9.192;2022-10-15T10:24:25;20.70;92.80
28460;DHT22;32528;45.712;9.192;2022-10-15T10:26:27;20.80;92.90
28460;DHT22;32528;45.712;9.192;2022-10-15T10:28:36;20.70;92.90
28460;DHT22;32528;45.712;9.192;2022-10-15T10:32:44;20.70;93.50
28460;DHT22;32528;45.712;9.192;2022-10-15T10:34:45;20.60;93.70
28460;DHT22;32528;45.712;9.192;2022-10-15T10:36:47;20.60;93.90
28460;DHT22;32528;45.712;9.192;2022-10-15T10:41:08;20.30;94.10
28460;DHT22;32528;45.712;9.192;2022-10-15T10:45:19;20.60;93.90
28460;DHT22;32528;45.712;9.192;2022-10-15T10:47:23;20.60;94.10
28460;DHT22;32528;45.712;9.192;2022-10-15T10:49:34;20.60;94.00
28460;DHT22;32528;45.712;9.192;2022-10-15T10:51:36;20.70;93.90
28460;DHT22;32528;45.712;9.192;2022-10-15T10:55:54;20.90;93.40
28460;DHT22;32528;45.712;9.192;2022-10-15T10:57:58;20.90;93.50
28460;DHT22;32528;45.712;9.192;2022-10-15T11:00:00;21.10;93.50
28460;DHT22;32528;45.712;9.192;2022-10-15T11:02:07;21.10;93.10
28460;DHT22;32528;45.712;9.192;2022-10-15T11:04:11;21.30;92.80
28460;DHT22;32528;45.712;9.192;2022-10-15T11:06:31;21.40;92.80
28460;DHT22;32528;45.712;9.192;2022-10-15T11:10:38;21.70;92.20
28460;DHT22;32528;45.712;9.192;2022-10-15T11:12:57;21.60;92.60
28460;DHT22;32528;45.712;9.192;2022-10-15T11:29:55;20.80;93.00
28460;DHT22;32528;45.712;9.192;2022-10-15T11:32:00;20.70;92.90
28460;DHT22;32528;45.712;9.192;2022-10-15T11:36:29;20.80;93.30
28460;DHT22;32528;45.712;9.192;2022-10-15T11:42:57;21.30;92.80
28460;DHT22;32528;45.712;9.192;2022-10-15T11:47:10;21.80;92.00
28460;DHT22;32528;45.712;9.192;2022-10-15T11:51:54;21.80;91.70
28460;DHT22;32528;45.712;9.192;2022-10-15T11:56:23;21.80;91.50
28460;DHT22;32528;45.712;9.192;2022-10-15T11:58:32;22.00;91.50
28460;DHT22;32528;45.712;9.192;2022-10-15T12:00:38;22.10;91.00
28460;DHT22;32528;45.712;9.192;2022-10-15T12:02:40;22.10;91.40
28460;DHT22;32528;45.712;9.192;2022-10-15T12:04:43;22.00;88.80
28460;DHT22;32528;45.712;9.192;2022-10-15T12:06:46;21.80;88.40
28460;DHT22;32528;45.712;9.192;2022-10-15T12:08:49;21.80;89.10
28460;DHT22;32528;45.712;9.192;2022-10-15T12:12:55;22.10;90.40
28460;DHT22;32528;45.712;9.192;2022-10-15T12:19:19;22.20;90.30
28460;DHT22;32528;45.712;9.192;2022-10-15T12:21:34;22.10;90.40
28460;DHT22;32528;45.712;9.192;2022-10-15T12:25:38;22.30;90.00
28460;DHT22;32528;45.712;9.192;2022-10-15T12:27:39;22.40;88.60
28460;DHT22;32528;45.712;9.192;2022-10-15T12:29:40;22.40;88.00
28460;DHT22;32528;45.712;9.192;2022-10-15T12:31:42;22.40;88.50
28460;DHT22;32528;45.712;9.192;2022-10-15T12:33:44;22.30;88.70
28460;DHT22;32528;45.712;9.192;2022-10-15T12:35:52;22.30;89.80
28460;DHT22;32528;45.712;9.192;2022-10-15T12:37:56;22.40;90.10
28460;DHT22;32528;45.712;9.192;2022-10-15T12:40:29;22.30;90.20
28460;DHT22;32528;45.712;9.192;2022-10-15T12:42:37;22.30;90.00
28460;DHT22;32528;45.712;9.192;2022-10-15T12:44:39;22.40;90.00
28460;DHT22;32528;45.712;9.192;2022-10-15T12:46:40;22.50;89.10
28460;DHT22;32528;45.712;9.192;2022-10-15T12:48:41;22.60;88.70
28460;DHT22;32528;45.712;9.192;2022-10-15T12:50:42;22.70;89.10
28460;DHT22;32528;45.712;9.192;2022-10-15T12:52:50;22.60;88.10
28460;DHT22;32528;45.712;9.192;2022-10-15T12:54:51;22.60;88.10
28460;DHT22;32528;45.712;9.192;2022-10-15T12:56:54;22.50;88.20
28460;DHT22;32528;45.712;9.192;2022-10-15T12:58:54;22.50;89.20
28460;DHT22;32528;45.712;9.192;2022-10-15T13:00:57;22.50;88.10
28460;DHT22;32528;45.712;9.192;2022-10-15T13:03:22;22.50;87.70
28460;DHT22;32528;45.712;9.192;2022-10-15T13:05:31;22.50;87.90
28460;DHT22;32528;45.712;9.192;2022-10-15T13:07:34;22.40;86.00
28460;DHT22;32528;45.712;9.192;2022-10-15T13:09:36;22.30;87.40
28460;DHT22;32528;45.712;9.192;2022-10-15T13:11:39;22.40;87.50
28460;DHT22;32528;45.712;9.192;2022-10-15T13:13:42;22.40;87.40
28460;DHT22;32528;45.712;9.192;2022-10-15T13:15:48;22.40;84.90
28460;DHT22;32528;45.712;9.192;2022-10-15T13:17:49;22.40;85.30
28460;DHT22;32528;45.712;9.192;2022-10-15T13:19:55;22.40;86.60
28460;DHT22;32528;45.712;9.192;2022-10-15T13:21:58;22.40;86.20
28460;DHT22;32528;45.712;9.192;2022-10-15T13:24:01;22.40;82.90
28460;DHT22;32528;45.712;9.192;2022-10-15T13:28:31;22.50;81.90
28460;DHT22;32528;45.712;9.192;2022-10-15T13:30:33;22.50;82.90
28460;DHT22;32528;45.712;9.192;2022-10-15T13:32:54;22.40;84.40
28460;DHT22;32528;45.712;9.192;2022-10-15T13:34:54;22.40;84.50
28460;DHT22;32528;45.712;9.192;2022-10-15T13:36:58;22.50;87.00
28460;DHT22;32528;45.712;9.192;2022-10-15T13:39:00;22.60;84.50
28460;DHT22;32528;45.712;9.192;2022-10-15T13:41:03;22.60;83.90
28460;DHT22;32528;45.712;9.192;2022-10-15T13:43:20;22.60;84.90
28460;DHT22;32528;45.712;9.192;2022-10-15T13:45:21;22.70;85.10
28460;DHT22;32528;45.712;9.192;2022-10-15T13:47:24;22.70;85.70
28460;DHT22;32528;45.712;9.192;2022-10-15T13:49:25;22.80;84.60
28460;DHT22;32528;45.712;9.192;2022-10-15T13:51:33;22.80;85.00
28460;DHT22;32528;45.712;9.192;2022-10-15T13:53:35;22.90;84.70
28460;DHT22;32528;45.712;9.192;2022-10-15T13:55:37;22.90;84.70
28460;DHT22;32528;45.712;9.192;2022-10-15T13:57:42;22.90;83.70
28460;DHT22;32528;45.712;9.192;2022-10-15T13:59:43;22.80;83.80
28460;DHT22;32528;45.712;9.192;2022-10-15T14:01:45;22.70;84.00
28460;DHT22;32528;45.712;9.192;2022-10-15T14:03:47;22.80;84.80
28460;DHT22;32528;45.712;9.192;2022-10-15T14:05:50;22.80;85.70
28460;DHT22;32528;45.712;9.192;2022-10-15T14:07:53;23.00;85.40
28460;DHT22;32528;45.712;9.192;2022-10-15T14:09:54;23.00;84.80
28460;DHT22;32528;45.712;9.192;2022-10-15T14:11:54;22.80;84.60
28460;DHT22;32528;45.712;9.192;2022-10-15T14:13:56;22.80;84.30
28460;DHT22;32528;45.712;9.192;2022-10-15T14:18:17;22.90;84.70
28460;DHT22;32528;45.712;9.192;2022-10-15T14:20:18;22.90;83.80
28460;DHT22;32528;45.712;9.192;2022-10-15T14:22:20;22.90;83.60
28460;DHT22;32528;45.712;9.192;2022-10-15T14:24:30;22.90;84.70
28460;DHT22;32528;45.712;9.192;2022-10-15T14:26:32;23.20;84.30
28460;DHT22;32528;45.712;9.192;2022-10-15T14:28:36;23.30;84.20
28460;DHT22;32528;45.712;9.192;2022-10-15T14:30:37;23.60;83.00
28460;DHT22;32528;45.712;9.192;2022-10-15T14:32:45;23.70;83.20
28460;DHT22;32528;45.712;9.192;2022-10-15T14:34:46;23.90;83.30
28460;DHT22;32528;45.712;9.192;2022-10-15T14:36:47;23.70;80.50
28460;DHT22;32528;45.712;9.192;2022-10-15T14:38:48;23.70;79.90
28460;DHT22;32528;45.712;9.192;2022-10-15T14:40:57;23.70;78.30
28460;DHT22;32528;45.712;9.192;2022-10-15T14:43:06;23.70;79.20